sensor_id;sensor_type;location;lat;lon;timestamp;P1;durP1;ratioP1;P2;durP2;ratioP2
13720;SDS011;6932;51.438;5.470;2024-03-08T00:02:16;22.90;;;14.33;;
13720;SDS011;6932;51.438;5.470;2024-03-08T00:04:42;23.10;;;14.10;;
13720;SDS011;6932;51.438;5.470;2024-03-08T00:07:09;21.83;;;13.50;;
13720;SDS011;6932;51.438;5.470;2024-03-08T00:09:35;21.93;;;13.37;;
13720;SDS011;6932;51.438;5.470;2024-03-08T00:12:01;21.20;;;13.17;;
13720;SDS011;6932;51.438;5.470;2024-03-08T00:14:27;21.43;;;14.13;;
13720;SDS011;6932;51.438;5.470;2024-03-08T00:16:53;21.03;;;13.73;;
13720;SDS011;6932;51.438;5.470;2024-03-08T00:19:19;22.80;;;13.80;;
13720;SDS011;6932;51.438;5.470;2024-03-08T00:21:45;20.57;;;13.53;;
13720;SDS011;6932;51.438;5.470;2024-03-08T00:24:10;22.73;;;14.17;;
13720;SDS011;6932;51.438;5.470;2024-03-08T00:26:37;21.97;;;13.87;;
13720;SDS011;6932;51.438;5.470;2024-03-08T00:29:02;22.40;;;13.53;;
13720;SDS011;6932;51.438;5.470;2024-03-08T00:31:28;21.90;;;13.30;;
13720;SDS011;6932;51.438;5.470;2024-03-08T00:33:55;21.20;;;13.00;;
13720;SDS011;6932;51.438;5.470;2024-03-08T00:36:22;22.67;;;13.57;;
13720;SDS011;6932;51.438;5.470;2024-03-08T00:38:48;22.03;;;13.60;;
13720;SDS011;6932;51.438;5.470;2024-03-08T00:41:14;23.23;;;13.60;;
13720;SDS011;6932;51.438;5.470;2024-03-08T00:43:39;20.20;;;13.07;;
13720;SDS011;6932;51.438;5.470;2024-03-08T00:46:05;23.23;;;13.63;;
13720;SDS011;6932;51.438;5.470;2024-03-08T00:48:31;21.13;;;13.43;;
13720;SDS011;6932;51.438;5.470;2024-03-08T00:50:57;20.67;;;13.37;;
13720;SDS011;6932;51.438;5.470;2024-03-08T00:53:22;19.83;;;13.33;;
13720;SDS011;6932;51.438;5.470;2024-03-08T00:55:48;20.23;;;13.30;;
13720;SDS011;6932;51.438;5.470;2024-03-08T00:58:14;20.70;;;13.43;;
13720;SDS011;6932;51.438;5.470;2024-03-08T01:00:40;22.27;;;13.87;;
13720;SDS011;6932;51.438;5.470;2024-03-08T01:03:06;23.23;;;13.73;;
13720;SDS011;6932;51.438;5.470;2024-03-08T01:05:32;21.33;;;14.00;;
13720;SDS011;6932;51.438;5.470;2024-03-08T01:08:00;20.63;;;12.97;;
13720;SDS011;6932;51.438;5.470;2024-03-08T01:10:28;22.73;;;14.43;;
13720;SDS011;6932;51.438;5.470;2024-03-08T01:12:53;20.90;;;13.40;;
13720;SDS011;6932;51.438;5.470;2024-03-08T01:15:21;19.87;;;12.87;;
13720;SDS011;6932;51.438;5.470;2024-03-08T01:17:48;20.10;;;12.80;;
13720;SDS011;6932;51.438;5.470;2024-03-08T01:20:15;21.20;;;13.07;;
13720;SDS011;6932;51.438;5.470;2024-03-08T01:22:40;19.50;;;13.43;;
13720;SDS011;6932;51.438;5.470;2024-03-08T01:25:07;20.70;;;13.50;;
13720;SDS011;6932;51.438;5.470;2024-03-08T01:27:33;22.67;;;14.10;;
13720;SDS011;6932;51.438;5.470;2024-03-08T01:30:00;20.97;;;13.23;;
13720;SDS011;6932;51.438;5.470;2024-03-08T01:32:26;18.87;;;12.57;;
13720;SDS011;6932;51.438;5.470;2024-03-08T01:34:52;21.27;;;13.27;;
13720;SDS011;6932;51.438;5.470;2024-03-08T01:37:18;21.73;;;13.40;;
13720;SDS011;6932;51.438;5.470;2024-03-08T01:39:44;18.57;;;13.07;;
13720;SDS011;6932;51.438;5.470;2024-03-08T01:42:10;21.13;;;13.40;;
13720;SDS011;6932;51.438;5.470;2024-03-08T01:44:40;22.07;;;12.93;;
13720;SDS011;6932;51.438;5.470;2024-03-08T01:47:06;22.23;;;13.53;;
13720;SDS011;6932;51.438;5.470;2024-03-08T01:49:32;22.27;;;13.80;;
13720;SDS011;6932;51.438;5.470;2024-03-08T01:51:58;20.57;;;13.87;;
13720;SDS011;6932;51.438;5.470;2024-03-08T01:54:25;19.47;;;12.60;;
13720;SDS011;6932;51.438;5.470;2024-03-08T01:56:52;19.97;;;13.07;;
13720;SDS011;6932;51.438;5.470;2024-03-08T01:59:18;20.50;;;13.20;;
13720;SDS011;6932;51.438;5.470;2024-03-08T02:01:44;20.80;;;13.50;;
13720;SDS011;6932;51.438;5.470;2024-03-08T02:04:10;19.43;;;12.80;;
13720;SDS011;6932;51.438;5.470;2024-03-08T02:06:36;19.63;;;12.90;;
13720;SDS011;6932;51.438;5.470;2024-03-08T02:09:03;20.33;;;13.13;;
13720;SDS011;6932;51.438;5.470;2024-03-08T02:11:31;19.63;;;12.90;;
13720;SDS011;6932;51.438;5.470;2024-03-08T02:13:59;19.17;;;12.87;;
13720;SDS011;6932;51.438;5.470;2024-03-08T02:16:24;20.97;;;13.13;;
13720;SDS011;6932;51.438;5.470;2024-03-08T02:18:50;20.13;;;12.93;;
13720;SDS011;6932;51.438;5.470;2024-03-08T02:21:16;21.47;;;13.60;;
13720;SDS011;6932;51.438;5.470;2024-03-08T02:23:43;18.57;;;12.80;;
13720;SDS011;6932;51.438;5.470;2024-03-08T02:26:09;19.27;;;11.90;;
13720;SDS011;6932;51.438;5.470;2024-03-08T02:28:35;21.10;;;13.03;;
13720;SDS011;6932;51.438;5.470;2024-03-08T02:31:02;23.47;;;13.50;;
13720;SDS011;6932;51.438;5.470;2024-03-08T02:33:33;19.23;;;13.07;;
13720;SDS011;6932;51.438;5.470;2024-03-08T02:35:59;21.03;;;13.73;;
13720;SDS011;6932;51.438;5.470;2024-03-08T02:38:25;20.80;;;13.67;;
13720;SDS011;6932;51.438;5.470;2024-03-08T02:40:51;19.83;;;12.93;;
13720;SDS011;6932;51.438;5.470;2024-03-08T02:43:19;18.23;;;12.43;;
13720;SDS011;6932;51.438;5.470;2024-03-08T02:45:47;19.43;;;12.80;;
13720;SDS011;6932;51.438;5.470;2024-03-08T02:48:13;19.10;;;12.57;;
13720;SDS011;6932;51.438;5.470;2024-03-08T02:50:41;20.17;;;13.47;;
13720;SDS011;6932;51.438;5.470;2024-03-08T02:53:10;20.40;;;13.67;;
13720;SDS011;6932;51.438;5.470;2024-03-08T02:55:38;20.97;;;12.83;;
13720;SDS011;6932;51.438;5.470;2024-03-08T02:58:04;21.20;;;13.33;;
13720;SDS011;6932;51.438;5.470;2024-03-08T03:00:30;19.67;;;12.73;;
13720;SDS011;6932;51.438;5.470;2024-03-08T03:02:57;20.40;;;13.47;;
13720;SDS011;6932;51.438;5.470;2024-03-08T03:05:23;20.53;;;13.27;;
13720;SDS011;6932;51.438;5.470;2024-03-08T03:07:50;18.97;;;12.87;;
13720;SDS011;6932;51.438;5.470;2024-03-08T03:10:16;19.03;;;12.83;;
13720;SDS011;6932;51.438;5.470;2024-03-08T03:12:43;20.67;;;13.30;;
13720;SDS011;6932;51.438;5.470;2024-03-08T03:15:11;19.57;;;13.10;;
13720;SDS011;6932;51.438;5.470;2024-03-08T03:17:38;20.07;;;13.20;;
13720;SDS011;6932;51.438;5.470;2024-03-08T03:20:05;19.27;;;13.00;;
13720;SDS011;6932;51.438;5.470;2024-03-08T03:22:35;19.17;;;12.83;;
13720;SDS011;6932;51.438;5.470;2024-03-08T03:25:02;19.50;;;13.13;;
13720;SDS011;6932;51.438;5.470;2024-03-08T03:27:31;20.63;;;14.03;;
13720;SDS011;6932;51.438;5.470;2024-03-08T03:29:58;20.73;;;13.73;;
13720;SDS011;6932;51.438;5.470;2024-03-08T03:32:31;20.80;;;13.37;;
13720;SDS011;6932;51.438;5.470;2024-03-08T03:34:58;21.03;;;13.03;;
13720;SDS011;6932;51.438;5.470;2024-03-08T03:37:23;20.43;;;13.10;;
13720;SDS011;6932;51.438;5.470;2024-03-08T03:39:49;19.73;;;13.17;;
13720;SDS011;6932;51.438;5.470;2024-03-08T03:42:17;20.47;;;13.40;;
13720;SDS011;6932;51.438;5.470;2024-03-08T03:44:45;19.50;;;13.40;;
13720;SDS011;6932;51.438;5.470;2024-03-08T03:47:12;19.93;;;13.07;;
13720;SDS011;6932;51.438;5.470;2024-03-08T03:49:42;20.43;;;13.43;;
13720;SDS011;6932;51.438;5.470;2024-03-08T03:52:08;19.63;;;12.80;;
13720;SDS011;6932;51.438;5.470;2024-03-08T03:54:35;22.03;;;13.93;;
13720;SDS011;6932;51.438;5.470;2024-03-08T03:57:01;20.20;;;13.47;;
13720;SDS011;6932;51.438;5.470;2024-03-08T03:59:27;19.30;;;13.17;;
13720;SDS011;6932;51.438;5.470;2024-03-08T04:01:54;22.10;;;13.87;;
13720;SDS011;6932;51.438;5.470;2024-03-08T04:04:20;19.70;;;13.07;;
13720;SDS011;6932;51.438;5.470;2024-03-08T04:06:46;19.50;;;13.00;;
13720;SDS011;6932;51.438;5.470;2024-03-08T04:09:12;20.40;;;13.40;;
13720;SDS011;6932;51.438;5.470;2024-03-08T04:11:39;19.20;;;12.73;;
13720;SDS011;6932;51.438;5.470;2024-03-08T04:14:05;22.27;;;13.43;;
13720;SDS011;6932;51.438;5.470;2024-03-08T04:16:31;19.17;;;13.17;;
13720;SDS011;6932;51.438;5.470;2024-03-08T04:18:57;20.57;;;13.40;;
13720;SDS011;6932;51.438;5.470;2024-03-08T04:21:23;19.17;;;13.10;;
13720;SDS011;6932;51.438;5.470;2024-03-08T04:23:49;21.70;;;13.37;;
13720;SDS011;6932;51.438;5.470;2024-03-08T04:26:15;20.07;;;13.20;;
13720;SDS011;6932;51.438;5.470;2024-03-08T04:28:40;20.97;;;13.90;;
13720;SDS011;6932;51.438;5.470;2024-03-08T04:31:06;20.93;;;13.37;;
13720;SDS011;6932;51.438;5.470;2024-03-08T04:33:32;20.17;;;13.60;;
13720;SDS011;6932;51.438;5.470;2024-03-08T04:36:00;21.53;;;14.00;;
13720;SDS011;6932;51.438;5.470;2024-03-08T04:38:29;21.50;;;13.60;;
13720;SDS011;6932;51.438;5.470;2024-03-08T04:40:55;20.80;;;13.50;;
13720;SDS011;6932;51.438;5.470;2024-03-08T04:43:23;20.33;;;13.33;;
13720;SDS011;6932;51.438;5.470;2024-03-08T04:45:55;21.33;;;13.97;;
13720;SDS011;6932;51.438;5.470;2024-03-08T04:48:21;19.80;;;13.53;;
13720;SDS011;6932;51.438;5.470;2024-03-08T04:50:46;21.03;;;13.67;;
13720;SDS011;6932;51.438;5.470;2024-03-08T04:53:12;20.30;;;13.57;;
13720;SDS011;6932;51.438;5.470;2024-03-08T04:55:38;20.43;;;13.93;;
13720;SDS011;6932;51.438;5.470;2024-03-08T04:58:04;20.03;;;13.70;;
13720;SDS011;6932;51.438;5.470;2024-03-08T05:00:32;20.70;;;13.70;;
13720;SDS011;6932;51.438;5.470;2024-03-08T05:02:58;19.43;;;13.43;;
13720;SDS011;6932;51.438;5.470;2024-03-08T05:05:24;20.43;;;14.20;;
13720;SDS011;6932;51.438;5.470;2024-03-08T05:07:52;21.03;;;14.10;;
13720;SDS011;6932;51.438;5.470;2024-03-08T05:10:18;20.90;;;13.63;;
13720;SDS011;6932;51.438;5.470;2024-03-08T05:12:44;22.53;;;14.00;;
13720;SDS011;6932;51.438;5.470;2024-03-08T05:15:10;21.03;;;13.97;;
13720;SDS011;6932;51.438;5.470;2024-03-08T05:17:36;20.07;;;13.60;;
13720;SDS011;6932;51.438;5.470;2024-03-08T05:20:02;20.80;;;13.90;;
13720;SDS011;6932;51.438;5.470;2024-03-08T05:22:29;21.07;;;14.23;;
13720;SDS011;6932;51.438;5.470;2024-03-08T05:24:54;22.27;;;13.90;;
13720;SDS011;6932;51.438;5.470;2024-03-08T05:27:20;21.83;;;14.53;;
13720;SDS011;6932;51.438;5.470;2024-03-08T05:29:46;22.50;;;14.60;;
13720;SDS011;6932;51.438;5.470;2024-03-08T05:32:12;21.03;;;13.43;;
13720;SDS011;6932;51.438;5.470;2024-03-08T05:34:37;20.37;;;14.10;;
13720;SDS011;6932;51.438;5.470;2024-03-08T05:37:03;20.00;;;13.90;;
13720;SDS011;6932;51.438;5.470;2024-03-08T05:39:29;20.53;;;14.17;;
13720;SDS011;6932;51.438;5.470;2024-03-08T05:41:55;21.73;;;14.80;;
13720;SDS011;6932;51.438;5.470;2024-03-08T05:44:21;21.93;;;14.70;;
13720;SDS011;6932;51.438;5.470;2024-03-08T05:46:47;21.70;;;14.13;;
13720;SDS011;6932;51.438;5.470;2024-03-08T05:49:13;22.03;;;14.60;;
13720;SDS011;6932;51.438;5.470;2024-03-08T05:51:39;20.67;;;13.70;;
13720;SDS011;6932;51.438;5.470;2024-03-08T05:54:09;21.50;;;14.53;;
13720;SDS011;6932;51.438;5.470;2024-03-08T05:56:37;22.30;;;14.17;;
13720;SDS011;6932;51.438;5.470;2024-03-08T05:59:05;20.07;;;13.53;;
13720;SDS011;6932;51.438;5.470;2024-03-08T06:01:31;20.93;;;14.13;;
13720;SDS011;6932;51.438;5.470;2024-03-08T06:03:57;20.63;;;14.00;;
13720;SDS011;6932;51.438;5.470;2024-03-08T06:06:24;21.93;;;14.53;;
13720;SDS011;6932;51.438;5.470;2024-03-08T06:08:50;22.30;;;15.03;;
13720;SDS011;6932;51.438;5.470;2024-03-08T06:11:18;21.60;;;14.17;;
13720;SDS011;6932;51.438;5.470;2024-03-08T06:13:45;21.57;;;14.70;;
13720;SDS011;6932;51.438;5.470;2024-03-08T06:16:12;23.80;;;15.50;;
13720;SDS011;6932;51.438;5.470;2024-03-08T06:18:38;20.63;;;14.07;;
13720;SDS011;6932;51.438;5.470;2024-03-08T06:21:06;23.67;;;15.03;;
13720;SDS011;6932;51.438;5.470;2024-03-08T06:23:41;22.93;;;14.67;;
13720;SDS011;6932;51.438;5.470;2024-03-08T06:26:07;22.17;;;14.60;;
13720;SDS011;6932;51.438;5.470;2024-03-08T06:28:33;21.90;;;14.70;;
13720;SDS011;6932;51.438;5.470;2024-03-08T06:31:02;22.77;;;14.73;;
13720;SDS011;6932;51.438;5.470;2024-03-08T06:33:28;22.83;;;15.37;;
13720;SDS011;6932;51.438;5.470;2024-03-08T06:35:56;21.20;;;14.30;;
13720;SDS011;6932;51.438;5.470;2024-03-08T06:38:25;22.03;;;14.70;;
13720;SDS011;6932;51.438;5.470;2024-03-08T06:40:52;24.17;;;14.80;;
13720;SDS011;6932;51.438;5.470;2024-03-08T06:43:19;22.13;;;14.73;;
13720;SDS011;6932;51.438;5.470;2024-03-08T06:45:45;23.60;;;14.30;;
13720;SDS011;6932;51.438;5.470;2024-03-08T06:48:16;23.47;;;15.83;;
13720;SDS011;6932;51.438;5.470;2024-03-08T06:50:46;21.00;;;14.80;;
13720;SDS011;6932;51.438;5.470;2024-03-08T06:53:12;22.40;;;14.73;;
13720;SDS011;6932;51.438;5.470;2024-03-08T06:55:39;22.73;;;15.17;;
13720;SDS011;6932;51.438;5.470;2024-03-08T06:58:05;22.17;;;14.50;;
13720;SDS011;6932;51.438;5.470;2024-03-08T07:00:35;23.13;;;15.03;;
13720;SDS011;6932;51.438;5.470;2024-03-08T07:03:02;21.03;;;14.30;;
13720;SDS011;6932;51.438;5.470;2024-03-08T07:05:29;22.57;;;14.70;;
13720;SDS011;6932;51.438;5.470;2024-03-08T07:07:55;21.80;;;14.73;;
13720;SDS011;6932;51.438;5.470;2024-03-08T07:10:21;22.07;;;14.60;;
13720;SDS011;6932;51.438;5.470;2024-03-08T07:12:50;20.67;;;14.20;;
13720;SDS011;6932;51.438;5.470;2024-03-08T07:15:18;23.13;;;14.63;;
13720;SDS011;6932;51.438;5.470;2024-03-08T07:17:44;22.70;;;15.07;;
13720;SDS011;6932;51.438;5.470;2024-03-08T07:20:11;22.37;;;14.53;;
13720;SDS011;6932;51.438;5.470;2024-03-08T07:22:40;22.53;;;14.63;;
13720;SDS011;6932;51.438;5.470;2024-03-08T07:25:06;21.80;;;14.83;;
13720;SDS011;6932;51.438;5.470;2024-03-08T07:27:35;22.50;;;15.07;;
13720;SDS011;6932;51.438;5.470;2024-03-08T07:30:01;21.20;;;14.63;;
13720;SDS011;6932;51.438;5.470;2024-03-08T07:32:30;22.37;;;14.77;;
13720;SDS011;6932;51.438;5.470;2024-03-08T07:34:56;21.73;;;14.23;;
13720;SDS011;6932;51.438;5.470;2024-03-08T07:37:23;21.97;;;14.60;;
13720;SDS011;6932;51.438;5.470;2024-03-08T07:39:49;21.53;;;14.60;;
13720;SDS011;6932;51.438;5.470;2024-03-08T07:42:15;21.50;;;14.50;;
13720;SDS011;6932;51.438;5.470;2024-03-08T07:44:41;20.63;;;13.83;;
13720;SDS011;6932;51.438;5.470;2024-03-08T07:47:08;20.57;;;13.67;;
13720;SDS011;6932;51.438;5.470;2024-03-08T07:49:35;20.27;;;13.63;;
13720;SDS011;6932;51.438;5.470;2024-03-08T07:52:02;21.03;;;13.77;;
13720;SDS011;6932;51.438;5.470;2024-03-08T07:54:29;22.33;;;13.77;;
13720;SDS011;6932;51.438;5.470;2024-03-08T07:56:56;21.10;;;14.07;;
13720;SDS011;6932;51.438;5.470;2024-03-08T07:59:21;20.80;;;13.90;;
13720;SDS011;6932;51.438;5.470;2024-03-08T08:01:47;21.30;;;14.07;;
13720;SDS011;6932;51.438;5.470;2024-03-08T08:04:13;21.10;;;13.60;;
13720;SDS011;6932;51.438;5.470;2024-03-08T08:06:39;20.33;;;14.07;;
13720;SDS011;6932;51.438;5.470;2024-03-08T08:09:08;21.33;;;13.70;;
13720;SDS011;6932;51.438;5.470;2024-03-08T08:11:40;21.00;;;13.93;;
13720;SDS011;6932;51.438;5.470;2024-03-08T08:14:10;22.43;;;14.43;;
13720;SDS011;6932;51.438;5.470;2024-03-08T08:16:36;19.63;;;13.57;;
13720;SDS011;6932;51.438;5.470;2024-03-08T08:19:02;21.40;;;13.80;;
13720;SDS011;6932;51.438;5.470;2024-03-08T08:21:33;19.87;;;13.63;;
13720;SDS011;6932;51.438;5.470;2024-03-08T08:24:05;21.30;;;14.23;;
13720;SDS011;6932;51.438;5.470;2024-03-08T08:26:31;19.90;;;13.73;;
13720;SDS011;6932;51.438;5.470;2024-03-08T08:28:59;20.47;;;14.20;;
13720;SDS011;6932;51.438;5.470;2024-03-08T08:31:25;21.07;;;14.00;;
13720;SDS011;6932;51.438;5.470;2024-03-08T08:33:51;19.20;;;13.50;;
13720;SDS011;6932;51.438;5.470;2024-03-08T08:36:23;19.20;;;13.30;;
13720;SDS011;6932;51.438;5.470;2024-03-08T08:38:49;21.37;;;13.83;;
13720;SDS011;6932;51.438;5.470;2024-03-08T08:41:15;20.07;;;13.07;;
13720;SDS011;6932;51.438;5.470;2024-03-08T08:43:42;20.73;;;13.70;;
13720;SDS011;6932;51.438;5.470;2024-03-08T08:46:11;18.50;;;12.50;;
13720;SDS011;6932;51.438;5.470;2024-03-08T08:48:39;20.70;;;13.73;;
13720;SDS011;6932;51.438;5.470;2024-03-08T08:51:06;19.27;;;13.00;;
13720;SDS011;6932;51.438;5.470;2024-03-08T08:53:39;19.30;;;13.27;;
13720;SDS011;6932;51.438;5.470;2024-03-08T08:56:10;20.63;;;13.40;;
13720;SDS011;6932;51.438;5.470;2024-03-08T08:58:38;21.43;;;13.67;;
13720;SDS011;6932;51.438;5.470;2024-03-08T09:01:08;18.40;;;12.90;;
13720;SDS011;6932;51.438;5.470;2024-03-08T09:03:37;21.27;;;13.57;;
13720;SDS011;6932;51.438;5.470;2024-03-08T09:06:05;18.77;;;12.97;;
13720;SDS011;6932;51.438;5.470;2024-03-08T09:08:35;20.33;;;13.10;;
13720;SDS011;6932;51.438;5.470;2024-03-08T09:11:03;20.63;;;13.03;;
13720;SDS011;6932;51.438;5.470;2024-03-08T09:13:29;20.93;;;13.60;;
13720;SDS011;6932;51.438;5.470;2024-03-08T09:15:55;20.73;;;12.80;;
13720;SDS011;6932;51.438;5.470;2024-03-08T09:18:21;19.03;;;13.03;;
13720;SDS011;6932;51.438;5.470;2024-03-08T09:20:48;19.87;;;12.50;;
13720;SDS011;6932;51.438;5.470;2024-03-08T09:23:14;19.80;;;13.00;;
13720;SDS011;6932;51.438;5.470;2024-03-08T09:25:41;19.33;;;12.57;;
13720;SDS011;6932;51.438;5.470;2024-03-08T09:28:08;19.07;;;12.70;;
13720;SDS011;6932;51.438;5.470;2024-03-08T09:30:36;17.83;;;11.73;;
13720;SDS011;6932;51.438;5.470;2024-03-08T09:33:03;18.27;;;11.90;;
13720;SDS011;6932;51.438;5.470;2024-03-08T09:35:30;17.73;;;11.07;;
13720;SDS011;6932;51.438;5.470;2024-03-08T09:37:56;18.30;;;11.33;;
13720;SDS011;6932;51.438;5.470;2024-03-08T09:40:22;18.53;;;11.20;;
13720;SDS011;6932;51.438;5.470;2024-03-08T09:42:50;17.37;;;10.83;;
13720;SDS011;6932;51.438;5.470;2024-03-08T09:45:17;18.63;;;11.27;;
13720;SDS011;6932;51.438;5.470;2024-03-08T09:47:49;18.73;;;12.70;;
13720;SDS011;6932;51.438;5.470;2024-03-08T09:50:15;19.33;;;12.17;;
13720;SDS011;6932;51.438;5.470;2024-03-08T09:52:43;18.40;;;12.30;;
13720;SDS011;6932;51.438;5.470;2024-03-08T09:55:12;19.83;;;12.43;;
13720;SDS011;6932;51.438;5.470;2024-03-08T09:57:39;18.67;;;12.27;;
13720;SDS011;6932;51.438;5.470;2024-03-08T10:00:06;18.40;;;11.73;;
13720;SDS011;6932;51.438;5.470;2024-03-08T10:03:02;18.17;;;11.57;;
13720;SDS011;6932;51.438;5.470;2024-03-08T10:05:28;18.67;;;12.00;;
13720;SDS011;6932;51.438;5.470;2024-03-08T10:07:57;18.87;;;12.03;;
13720;SDS011;6932;51.438;5.470;2024-03-08T10:10:23;20.00;;;12.07;;
13720;SDS011;6932;51.438;5.470;2024-03-08T10:12:49;19.10;;;12.30;;
13720;SDS011;6932;51.438;5.470;2024-03-08T10:15:16;19.43;;;11.67;;
13720;SDS011;6932;51.438;5.470;2024-03-08T10:17:42;17.43;;;11.30;;
13720;SDS011;6932;51.438;5.470;2024-03-08T10:20:15;18.57;;;11.87;;
13720;SDS011;6932;51.438;5.470;2024-03-08T10:22:43;16.20;;;11.07;;
13720;SDS011;6932;51.438;5.470;2024-03-08T10:25:10;17.73;;;10.80;;
13720;SDS011;6932;51.438;5.470;2024-03-08T10:27:39;17.83;;;11.23;;
13720;SDS011;6932;51.438;5.470;2024-03-08T10:30:10;17.00;;;11.03;;
13720;SDS011;6932;51.438;5.470;2024-03-08T10:32:39;17.53;;;11.87;;
13720;SDS011;6932;51.438;5.470;2024-03-08T10:35:09;17.60;;;10.63;;
13720;SDS011;6932;51.438;5.470;2024-03-08T10:37:40;18.20;;;11.67;;
13720;SDS011;6932;51.438;5.470;2024-03-08T10:40:24;16.93;;;11.10;;
13720;SDS011;6932;51.438;5.470;2024-03-08T10:48:04;15.23;;;10.63;;
13720;SDS011;6932;51.438;5.470;2024-03-08T10:50:56;14.67;;;9.50;;
13720;SDS011;6932;51.438;5.470;2024-03-08T10:53:24;15.87;;;9.27;;
13720;SDS011;6932;51.438;5.470;2024-03-08T10:55:54;13.53;;;9.00;;
13720;SDS011;6932;51.438;5.470;2024-03-08T10:58:23;15.23;;;9.40;;
13720;SDS011;6932;51.438;5.470;2024-03-08T11:00:56;14.67;;;9.10;;
13720;SDS011;6932;51.438;5.470;2024-03-08T11:06:17;14.00;;;8.73;;
13720;SDS011;6932;51.438;5.470;2024-03-08T11:08:49;14.47;;;8.90;;
13720;SDS011;6932;51.438;5.470;2024-03-08T11:11:31;14.30;;;8.90;;
13720;SDS011;6932;51.438;5.470;2024-03-08T11:13:59;14.80;;;8.80;;
13720;SDS011;6932;51.438;5.470;2024-03-08T11:18:59;16.90;;;8.90;;
13720;SDS011;6932;51.438;5.470;2024-03-08T11:21:30;13.60;;;8.60;;
13720;SDS011;6932;51.438;5.470;2024-03-08T11:24:08;13.97;;;8.90;;
13720;SDS011;6932;51.438;5.470;2024-03-08T11:26:38;15.03;;;9.17;;
13720;SDS011;6932;51.438;5.470;2024-03-08T11:29:39;14.57;;;9.23;;
13720;SDS011;6932;51.438;5.470;2024-03-08T11:34:38;14.40;;;8.83;;
13720;SDS011;6932;51.438;5.470;2024-03-08T11:37:13;13.00;;;8.60;;
13720;SDS011;6932;51.438;5.470;2024-03-08T11:39:49;13.37;;;8.17;;
13720;SDS011;6932;51.438;5.470;2024-03-08T11:42:17;13.03;;;8.40;;
13720;SDS011;6932;51.438;5.470;2024-03-08T11:44:44;13.27;;;8.30;;
13720;SDS011;6932;51.438;5.470;2024-03-08T11:47:11;14.17;;;8.53;;
13720;SDS011;6932;51.438;5.470;2024-03-08T11:49:37;13.43;;;8.67;;
13720;SDS011;6932;51.438;5.470;2024-03-08T11:52:09;13.37;;;8.50;;
13720;SDS011;6932;51.438;5.470;2024-03-08T11:54:40;12.80;;;8.17;;
13720;SDS011;6932;51.438;5.470;2024-03-08T11:57:19;13.37;;;8.20;;
13720;SDS011;6932;51.438;5.470;2024-03-08T11:59:50;13.57;;;8.90;;
13720;SDS011;6932;51.438;5.470;2024-03-08T12:02:17;13.90;;;8.67;;
13720;SDS011;6932;51.438;5.470;2024-03-08T12:04:44;14.10;;;8.60;;
13720;SDS011;6932;51.438;5.470;2024-03-08T12:07:14;13.63;;;8.03;;
13720;SDS011;6932;51.438;5.470;2024-03-08T12:09:43;13.23;;;8.47;;
13720;SDS011;6932;51.438;5.470;2024-03-08T12:12:46;14.60;;;8.63;;
13720;SDS011;6932;51.438;5.470;2024-03-08T12:15:17;12.23;;;8.00;;
13720;SDS011;6932;51.438;5.470;2024-03-08T12:17:48;13.90;;;8.63;;
13720;SDS011;6932;51.438;5.470;2024-03-08T12:22:49;13.57;;;8.30;;
13720;SDS011;6932;51.438;5.470;2024-03-08T12:25:21;12.73;;;8.17;;
13720;SDS011;6932;51.438;5.470;2024-03-08T12:27:48;12.57;;;8.13;;
13720;SDS011;6932;51.438;5.470;2024-03-08T12:32:55;13.67;;;8.57;;
13720;SDS011;6932;51.438;5.470;2024-03-08T12:35:25;13.13;;;8.57;;
13720;SDS011;6932;51.438;5.470;2024-03-08T12:37:54;12.67;;;8.30;;
13720;SDS011;6932;51.438;5.470;2024-03-08T12:40:25;13.77;;;8.80;;
13720;SDS011;6932;51.438;5.470;2024-03-08T12:42:56;13.10;;;8.40;;
13720;SDS011;6932;51.438;5.470;2024-03-08T12:45:31;13.53;;;8.73;;
13720;SDS011;6932;51.438;5.470;2024-03-08T12:47:57;13.93;;;8.40;;
13720;SDS011;6932;51.438;5.470;2024-03-08T12:50:24;13.67;;;8.40;;
13720;SDS011;6932;51.438;5.470;2024-03-08T12:52:50;14.23;;;8.50;;
13720;SDS011;6932;51.438;5.470;2024-03-08T12:55:19;13.83;;;8.47;;
13720;SDS011;6932;51.438;5.470;2024-03-08T12:57:46;13.37;;;8.43;;
13720;SDS011;6932;51.438;5.470;2024-03-08T13:00:14;13.57;;;8.47;;
13720;SDS011;6932;51.438;5.470;2024-03-08T13:02:48;15.07;;;8.43;;
13720;SDS011;6932;51.438;5.470;2024-03-08T13:05:16;13.33;;;8.70;;
13720;SDS011;6932;51.438;5.470;2024-03-08T13:07:42;13.53;;;8.60;;
13720;SDS011;6932;51.438;5.470;2024-03-08T13:10:14;14.07;;;8.60;;
13720;SDS011;6932;51.438;5.470;2024-03-08T13:12:44;14.03;;;8.40;;
13720;SDS011;6932;51.438;5.470;2024-03-08T13:15:10;15.23;;;8.83;;
13720;SDS011;6932;51.438;5.470;2024-03-08T13:17:40;15.83;;;8.37;;
13720;SDS011;6932;51.438;5.470;2024-03-08T13:20:07;14.50;;;8.63;;
13720;SDS011;6932;51.438;5.470;2024-03-08T13:22:34;14.80;;;8.73;;
13720;SDS011;6932;51.438;5.470;2024-03-08T13:25:01;13.17;;;8.43;;
13720;SDS011;6932;51.438;5.470;2024-03-08T13:27:28;13.70;;;8.93;;
13720;SDS011;6932;51.438;5.470;2024-03-08T13:29:54;13.63;;;8.47;;
13720;SDS011;6932;51.438;5.470;2024-03-08T13:32:19;13.23;;;8.03;;
13720;SDS011;6932;51.438;5.470;2024-03-08T13:34:49;14.10;;;9.17;;
13720;SDS011;6932;51.438;5.470;2024-03-08T13:37:16;13.67;;;8.50;;
13720;SDS011;6932;51.438;5.470;2024-03-08T13:39:42;13.50;;;8.40;;
13720;SDS011;6932;51.438;5.470;2024-03-08T13:42:11;14.20;;;8.53;;
13720;SDS011;6932;51.438;5.470;2024-03-08T13:44:38;12.97;;;8.70;;
13720;SDS011;6932;51.438;5.470;2024-03-08T13:47:08;12.90;;;7.97;;
13720;SDS011;6932;51.438;5.470;2024-03-08T13:49:36;14.17;;;8.77;;
13720;SDS011;6932;51.438;5.470;2024-03-08T13:52:03;14.17;;;7.77;;
13720;SDS011;6932;51.438;5.470;2024-03-08T13:54:29;11.97;;;7.17;;
13720;SDS011;6932;51.438;5.470;2024-03-08T13:56:56;13.60;;;7.80;;
13720;SDS011;6932;51.438;5.470;2024-03-08T13:59:23;13.67;;;7.80;;
13720;SDS011;6932;51.438;5.470;2024-03-08T14:01:49;12.33;;;7.83;;
13720;SDS011;6932;51.438;5.470;2024-03-08T14:04:15;13.70;;;7.77;;
13720;SDS011;6932;51.438;5.470;2024-03-08T14:06:44;12.67;;;8.00;;
13720;SDS011;6932;51.438;5.470;2024-03-08T14:09:10;13.27;;;7.63;;
13720;SDS011;6932;51.438;5.470;2024-03-08T14:11:45;12.63;;;7.80;;
13720;SDS011;6932;51.438;5.470;2024-03-08T14:14:11;12.80;;;8.23;;
13720;SDS011;6932;51.438;5.470;2024-03-08T14:16:40;13.17;;;8.37;;
13720;SDS011;6932;51.438;5.470;2024-03-08T14:19:05;14.83;;;8.03;;
13720;SDS011;6932;51.438;5.470;2024-03-08T14:21:31;12.60;;;7.83;;
13720;SDS011;6932;51.438;5.470;2024-03-08T14:23:58;12.33;;;7.63;;
13720;SDS011;6932;51.438;5.470;2024-03-08T14:26:24;11.10;;;7.10;;
13720;SDS011;6932;51.438;5.470;2024-03-08T14:28:51;12.40;;;7.60;;
13720;SDS011;6932;51.438;5.470;2024-03-08T14:31:19;12.50;;;7.90;;
13720;SDS011;6932;51.438;5.470;2024-03-08T14:33:50;14.20;;;7.80;;
13720;SDS011;6932;51.438;5.470;2024-03-08T14:36:18;13.47;;;8.53;;
13720;SDS011;6932;51.438;5.470;2024-03-08T14:38:48;12.43;;;7.67;;
13720;SDS011;6932;51.438;5.470;2024-03-08T14:41:14;12.63;;;7.93;;
13720;SDS011;6932;51.438;5.470;2024-03-08T14:43:42;13.13;;;7.83;;
13720;SDS011;6932;51.438;5.470;2024-03-08T14:46:10;13.07;;;7.77;;
13720;SDS011;6932;51.438;5.470;2024-03-08T14:48:48;13.00;;;8.10;;
13720;SDS011;6932;51.438;5.470;2024-03-08T14:51:18;13.00;;;7.60;;
13720;SDS011;6932;51.438;5.470;2024-03-08T14:53:47;12.27;;;7.60;;
13720;SDS011;6932;51.438;5.470;2024-03-08T14:56:14;13.17;;;8.03;;
13720;SDS011;6932;51.438;5.470;2024-03-08T14:58:44;16.37;;;7.83;;
13720;SDS011;6932;51.438;5.470;2024-03-08T15:01:16;12.47;;;8.07;;